Time;durP1;ratioP1;P1;durP2;ratioP2;P2;SDS_P1;SDS_P2;PMS_P1;PMS_P2;Temp;Humidity;BMP_temperature;BMP_pressure;BME280_temperature;BME280_humidity;BME280_pressure;Samples;Min_cycle;Max_cycle;Signal;HPM_P1;HPM_P2
2023/06/15 00:00:45;;;;;;;2.40;2.20;;;24.10;66.70;;;;;;5050023;28;20540;-61
2023/06/15 00:03:12;;;;;;;2.53;1.97;;;24.00;66.60;;;;;;5050377;28;20596;-60
2023/06/15 00:05:39;;;;;;;3.73;1.97;;;24.10;66.80;;;;;;5035322;28;20458;-60
2023/06/15 00:08:05;;;;;;;2.30;2.10;;;24.10;66.70;;;;;;5035059;28;20465;-60
2023/06/15 00:10:32;;;;;;;2.80;2.47;;;24.10;66.80;;;;;;5039625;28;20473;-61
2023/06/15 00:12:59;;;;;;;2.10;1.90;;;24.10;67.60;;;;;;5034884;28;20454;-60
2023/06/15 00:15:27;;;;;;;2.17;1.90;;;24.10;67.60;;;;;;5042926;28;20466;-60
2023/06/15 00:17:54;;;;;;;2.10;1.87;;;24.10;66.80;;;;;;5048254;28;20559;-61
2023/06/15 00:20:22;;;;;;;2.07;1.87;;;24.10;66.90;;;;;;5053462;28;20538;-61
2023/06/15 00:22:51;;;;;;;4.33;1.93;;;24.00;66.80;;;;;;5044158;28;20540;-60
2023/06/15 00:25:18;;;;;;;2.27;2.07;;;24.10;66.90;;;;;;5047908;28;20465;-62
2023/06/15 00:27:45;;;;;;;2.73;1.87;;;24.10;66.90;;;;;;5035518;28;20462;-60
2023/06/15 00:30:12;;;;;;;2.10;1.80;;;24.10;66.90;;;;;;5050604;28;20457;-61
2023/06/15 00:32:41;;;;;;;2.77;2.20;;;24.00;66.80;;;;;;5048062;28;20458;-60
2023/06/15 00:35:08;;;;;;;3.23;2.50;;;24.10;67.00;;;;;;5048183;28;20980;-60
2023/06/15 00:37:35;;;;;;;4.40;2.17;;;24.10;67.00;;;;;;5042918;28;20465;-60
2023/06/15 00:40:01;;;;;;;2.87;2.20;;;24.00;66.90;;;;;;5032113;28;21095;-60
2023/06/15 00:42:30;;;;;;;2.40;2.20;;;24.10;67.00;;;;;;5030937;28;20478;-61
2023/06/15 00:44:56;;;;;;;3.10;2.27;;;24.00;67.80;;;;;;5037375;28;20549;-61
2023/06/15 00:47:23;;;;;;;2.00;1.80;;;24.00;67.00;;;;;;5037670;28;20470;-60
2023/06/15 00:49:52;;;;;;;1.70;1.60;;;24.00;67.00;;;;;;5034568;28;20469;-61
2023/06/15 00:52:20;;;;;;;2.53;2.10;;;24.00;67.00;;;;;;5038243;28;20465;-62
2023/06/15 00:54:47;;;;;;;2.67;2.03;;;24.00;67.10;;;;;;5036875;28;20458;-60
2023/06/15 00:57:14;;;;;;;1.90;1.70;;;24.00;67.00;;;;;;5040581;28;20453;-60
2023/06/15 00:59:42;;;;;;;2.00;1.80;;;24.00;67.00;;;;;;5037487;28;20477;-60
2023/06/15 01:02:12;;;;;;;2.80;2.60;;;24.00;67.10;;;;;;5037915;28;20561;-59
2023/06/15 01:04:39;;;;;;;2.30;1.90;;;24.00;67.10;;;;;;5035175;28;20464;-60
2023/06/15 01:07:10;;;;;;;2.00;1.80;;;24.00;67.10;;;;;;5033808;28;20458;-63
2023/06/15 01:09:40;;;;;;;2.30;2.00;;;24.00;67.10;;;;;;5037085;28;20458;-62
2023/06/15 01:12:11;;;;;;;1.80;1.70;;;24.00;67.10;;;;;;5038454;28;20541;-61
2023/06/15 01:14:39;;;;;;;1.73;1.53;;;24.00;67.10;;;;;;5039393;28;20582;-62
2023/06/15 01:17:09;;;;;;;2.17;1.80;;;24.00;67.20;;;;;;5042199;28;20826;-61
2023/06/15 01:19:54;;;;;;;2.00;1.80;;;24.00;67.20;;;;;;5038757;28;20546;-61
2023/06/15 01:22:35;;;;;;;2.13;1.93;;;24.00;67.20;;;;;;5036611;28;20753;-61
2023/06/15 01:25:08;;;;;;;2.90;2.27;;;24.00;67.30;;;;;;5048748;28;21018;-62
2023/06/15 01:27:37;;;;;;;1.93;1.80;;;24.00;67.30;;;;;;5044755;28;20450;-60
2023/06/15 01:30:07;;;;;;;2.93;1.83;;;24.00;67.30;;;;;;5044204;28;20466;-62
2023/06/15 01:32:34;;;;;;;2.10;1.90;;;24.00;67.30;;;;;;5045768;28;20504;-62
2023/06/15 01:35:02;;;;;;;1.83;1.70;;;24.00;67.40;;;;;;5048035;28;20480;-62
2023/06/15 01:37:29;;;;;;;2.20;2.00;;;24.00;67.40;;;;;;5047504;28;20462;-62
2023/06/15 01:39:56;;;;;;;2.30;2.10;;;24.00;67.40;;;;;;5043656;28;20482;-61
2023/06/15 01:42:24;;;;;;;2.07;1.87;;;24.00;67.40;;;;;;5042547;28;20564;-62
2023/06/15 01:44:53;;;;;;;2.50;2.00;;;24.00;67.40;;;;;;5046102;28;20533;-61
2023/06/15 01:47:20;;;;;;;2.20;1.50;;;24.00;67.40;;;;;;5045567;28;20872;-61
2023/06/15 01:49:47;;;;;;;2.47;2.27;;;24.00;67.40;;;;;;5040909;28;20470;-61
2023/06/15 01:52:14;;;;;;;2.33;1.90;;;24.00;67.50;;;;;;5046881;28;20453;-61
2023/06/15 01:54:41;;;;;;;1.90;1.80;;;24.00;67.50;;;;;;5031932;28;20540;-61
2023/06/15 01:57:08;;;;;;;4.17;1.90;;;24.00;67.50;;;;;;5031701;28;20464;-62
2023/06/15 01:59:35;;;;;;;2.37;1.70;;;24.00;67.50;;;;;;5037349;28;20489;-61
2023/06/15 02:02:03;;;;;;;1.53;1.40;;;24.00;67.50;;;;;;5033524;28;20462;-62
2023/06/15 02:04:29;;;;;;;1.70;1.60;;;24.00;67.60;;;;;;5036168;28;20458;-62
2023/06/15 02:06:57;;;;;;;2.10;1.90;;;24.00;67.50;;;;;;5036250;28;20460;-61
2023/06/15 02:09:24;;;;;;;2.17;1.97;;;24.00;67.60;;;;;;5034952;28;20455;-62
2023/06/15 02:11:50;;;;;;;2.17;1.97;;;24.00;67.60;;;;;;5029395;28;20553;-62
2023/06/15 02:14:17;;;;;;;2.13;1.80;;;24.00;67.60;;;;;;5032312;28;20458;-62
2023/06/15 02:16:44;;;;;;;2.03;1.73;;;24.00;67.60;;;;;;5035674;28;20538;-62
2023/06/15 02:19:12;;;;;;;1.57;1.47;;;24.00;67.60;;;;;;5031651;28;20482;-61
2023/06/15 02:21:40;;;;;;;1.87;1.70;;;24.00;67.70;;;;;;5033265;28;20462;-61
2023/06/15 02:24:07;;;;;;;2.47;2.27;;;24.00;67.60;;;;;;5033641;28;20516;-61
2023/06/15 02:26:34;;;;;;;1.60;1.50;;;24.00;68.50;;;;;;5028602;28;20461;-62
2023/06/15 02:29:01;;;;;;;2.13;1.83;;;24.00;67.70;;;;;;5041291;28;20456;-62
2023/06/15 02:31:28;;;;;;;1.87;1.77;;;24.00;67.00;;;;;;5023591;28;20477;-62
2023/06/15 02:33:55;;;;;;;2.60;2.00;;;24.00;67.80;;;;;;5027806;28;20538;-61
2023/06/15 02:36:23;;;;;;;1.90;1.60;;;24.00;67.80;;;;;;5036499;28;20984;-61
2023/06/15 02:38:50;;;;;;;2.30;2.00;;;24.00;67.90;;;;;;5030902;28;20849;-61
2023/06/15 02:41:17;;;;;;;1.80;1.70;;;24.00;67.80;;;;;;5043894;28;20462;-62
2023/06/15 02:43:44;;;;;;;2.23;2.03;;;24.00;67.80;;;;;;5035074;28;20822;-62
2023/06/15 02:46:10;;;;;;;2.20;2.00;;;24.00;67.80;;;;;;5028663;28;20454;-62
2023/06/15 02:48:37;;;;;;;2.10;1.90;;;24.00;67.80;;;;;;5035256;28;20696;-62
2023/06/15 02:51:04;;;;;;;2.23;1.97;;;24.00;67.90;;;;;;5031975;28;20461;-61
2023/06/15 02:53:32;;;;;;;1.97;1.77;;;24.00;67.90;;;;;;5045122;28;20956;-61
2023/06/15 02:55:59;;;;;;;1.87;1.70;;;23.90;67.80;;;;;;5043895;28;20881;-61
2023/06/15 02:58:26;;;;;;;2.10;1.90;;;24.00;67.90;;;;;;5042728;28;21977;-61
2023/06/15 03:00:53;;;;;;;1.97;1.73;;;24.00;67.90;;;;;;5038226;28;20508;-61
2023/06/15 03:03:22;;;;;;;1.70;1.50;;;24.00;67.90;;;;;;5049983;28;20496;-60
2023/06/15 03:05:51;;;;;;;3.40;1.83;;;24.00;67.90;;;;;;5045392;28;20462;-61
2023/06/15 03:08:18;;;;;;;3.43;1.50;;;24.00;68.00;;;;;;5044881;28;20460;-62
2023/06/15 03:10:46;;;;;;;1.90;1.70;;;24.00;68.00;;;;;;5043133;28;20473;-61
2023/06/15 03:13:13;;;;;;;1.80;1.50;;;23.90;67.90;;;;;;5047887;28;20466;-61
2023/06/15 03:15:40;;;;;;;1.80;1.70;;;24.00;68.00;;;;;;5048373;28;20458;-61
2023/06/15 03:18:07;;;;;;;2.23;2.03;;;24.00;68.00;;;;;;5042588;28;20457;-61
2023/06/15 03:20:34;;;;;;;1.53;1.43;;;24.00;68.00;;;;;;5046486;28;20487;-61
2023/06/15 03:23:01;;;;;;;1.70;1.60;;;23.90;68.00;;;;;;5048653;28;20950;-62
2023/06/15 03:25:29;;;;;;;1.50;1.40;;;24.00;68.10;;;;;;5036862;28;20455;-60
2023/06/15 03:27:59;;;;;;;2.07;1.70;;;24.00;68.10;;;;;;5040556;28;20535;-61
2023/06/15 03:30:26;;;;;;;2.23;1.90;;;24.00;68.10;;;;;;5039709;28;21059;-62
2023/06/15 03:32:53;;;;;;;2.57;1.83;;;23.90;68.00;;;;;;5034544;28;20546;-63
2023/06/15 03:35:20;;;;;;;2.03;1.93;;;24.00;68.10;;;;;;5038999;28;21236;-61
2023/06/15 03:37:47;;;;;;;1.70;1.60;;;23.90;68.00;;;;;;5037048;28;20833;-61
2023/06/15 03:40:14;;;;;;;2.10;1.90;;;24.00;68.10;;;;;;5036903;28;20483;-60
2023/06/15 03:42:41;;;;;;;1.70;1.60;;;23.90;68.00;;;;;;5038489;28;20484;-61
2023/06/15 03:45:10;;;;;;;1.67;1.50;;;23.90;68.10;;;;;;5035458;28;20467;-61
2023/06/15 03:47:36;;;;;;;1.70;1.60;;;23.90;68.10;;;;;;5039320;28;20465;-61
2023/06/15 03:50:06;;;;;;;1.93;1.73;;;23.90;68.10;;;;;;5030643;28;20466;-62
2023/06/15 03:52:35;;;;;;;1.87;1.67;;;23.90;68.10;;;;;;5036499;28;20767;-62
2023/06/15 03:55:02;;;;;;;2.00;1.80;;;23.90;68.10;;;;;;5056877;28;20468;-61
2023/06/15 03:57:29;;;;;;;1.50;1.40;;;23.90;68.10;;;;;;5052284;28;20474;-61
2023/06/15 03:59:55;;;;;;;3.03;1.60;;;23.90;68.10;;;;;;5030300;28;20470;-60
2023/06/15 04:02:24;;;;;;;2.23;1.73;;;23.90;68.20;;;;;;5035228;28;20458;-61
2023/06/15 04:04:52;;;;;;;2.07;1.87;;;23.90;68.20;;;;;;5035569;28;20504;-62
2023/06/15 04:07:19;;;;;;;1.93;1.70;;;23.90;68.20;;;;;;5043991;28;20530;-61
2023/06/15 04:09:46;;;;;;;1.87;1.77;;;23.90;68.20;;;;;;5041573;28;20612;-61
2023/06/15 04:12:12;;;;;;;1.60;1.50;;;23.90;68.20;;;;;;5035506;28;20539;-61
2023/06/15 04:14:39;;;;;;;1.63;1.53;;;23.90;68.30;;;;;;5038853;28;20465;-61
2023/06/15 04:17:06;;;;;;;1.70;1.60;;;23.90;68.20;;;;;;5037212;28;20516;-61
2023/06/15 04:19:34;;;;;;;1.83;1.70;;;23.90;68.30;;;;;;5037892;28;20488;-62
2023/06/15 04:22:01;;;;;;;1.80;1.70;;;23.90;68.20;;;;;;5031647;28;20480;-62
2023/06/15 04:24:28;;;;;;;1.60;1.43;;;23.90;68.30;;;;;;5045820;28;21380;-60
2023/06/15 04:26:57;;;;;;;3.57;3.10;;;23.90;68.40;;;;;;5046266;28;21039;-62
2023/06/15 04:29:23;;;;;;;1.77;1.67;;;23.90;68.40;;;;;;5048064;28;20458;-61
2023/06/15 04:31:54;;;;;;;2.00;1.67;;;23.90;68.40;;;;;;5044959;28;20466;-61
2023/06/15 04:34:22;;;;;;;2.03;1.77;;;23.90;68.40;;;;;;5043845;28;20958;-60
2023/06/15 04:36:50;;;;;;;1.63;1.53;;;23.90;68.40;;;;;;5049396;28;20455;-61
2023/06/15 04:39:16;;;;;;;1.80;1.70;;;23.90;69.20;;;;;;5046842;28;20442;-61
2023/06/15 04:41:43;;;;;;;1.80;1.70;;;23.90;68.40;;;;;;5043778;28;20477;-62
2023/06/15 04:44:10;;;;;;;2.30;2.10;;;23.90;68.50;;;;;;5042459;28;20471;-61
2023/06/15 04:46:38;;;;;;;1.60;1.50;;;23.90;68.50;;;;;;5052283;28;20813;-61
2023/06/15 04:49:05;;;;;;;1.30;1.20;;;23.90;68.40;;;;;;5047216;28;20461;-61
2023/06/15 04:51:31;;;;;;;1.90;1.40;;;23.90;68.50;;;;;;5047818;28;20481;-61
2023/06/15 04:53:59;;;;;;;1.67;1.57;;;23.90;68.50;;;;;;5039716;28;20454;-61
2023/06/15 04:56:27;;;;;;;1.60;1.47;;;23.90;68.50;;;;;;5036745;28;20973;-61
2023/06/15 04:58:53;;;;;;;1.70;1.50;;;23.90;68.50;;;;;;5033026;28;20994;-62
2023/06/15 05:01:20;;;;;;;2.07;1.60;;;23.90;68.50;;;;;;5035550;28;20477;-61
2023/06/15 05:03:47;;;;;;;1.70;1.60;;;23.90;68.50;;;;;;5035933;28;20458;-61
2023/06/15 05:06:14;;;;;;;1.97;1.77;;;23.90;68.60;;;;;;5034463;28;20524;-61
2023/06/15 05:08:40;;;;;;;1.73;1.63;;;23.90;68.60;;;;;;5034621;28;20454;-61
2023/06/15 05:11:08;;;;;;;1.60;1.50;;;23.90;68.50;;;;;;5040200;28;20463;-61
2023/06/15 05:13:35;;;;;;;1.70;1.40;;;23.90;68.60;;;;;;5035636;28;21448;-61
2023/06/15 05:16:02;;;;;;;1.87;1.50;;;23.90;68.60;;;;;;5031864;28;20462;-61
2023/06/15 05:18:28;;;;;;;1.83;1.73;;;23.90;68.60;;;;;;5034652;28;20501;-60
2023/06/15 05:20:55;;;;;;;2.17;1.60;;;23.90;68.60;;;;;;5034651;28;21064;-61
2023/06/15 05:23:22;;;;;;;1.80;1.50;;;23.90;68.60;;;;;;5039374;28;20536;-61
2023/06/15 05:25:49;;;;;;;1.57;1.40;;;23.90;68.70;;;;;;5034901;28;21053;-61
2023/06/15 05:28:19;;;;;;;4.67;1.67;;;23.90;68.70;;;;;;5032606;28;21003;-61
2023/06/15 05:30:46;;;;;;;1.70;1.57;;;23.80;68.60;;;;;;5025487;28;20512;-62
2023/06/15 05:33:12;;;;;;;1.57;1.47;;;23.90;68.70;;;;;;5036067;28;20461;-61
2023/06/15 05:35:39;;;;;;;2.13;1.97;;;23.90;68.70;;;;;;5038713;28;20569;-62
2023/06/15 05:38:06;;;;;;;1.87;1.77;;;23.90;68.70;;;;;;5037926;28;20977;-61
2023/06/15 05:40:32;;;;;;;2.10;1.90;;;23.90;68.80;;;;;;5035650;28;20528;-60
2023/06/15 05:42:59;;;;;;;2.47;1.63;;;23.90;68.70;;;;;;5038012;28;20462;-61
2023/06/15 05:45:27;;;;;;;1.97;1.40;;;23.90;68.80;;;;;;5028875;28;20511;-61
2023/06/15 05:47:54;;;;;;;2.90;1.90;;;23.90;68.80;;;;;;5034961;28;20993;-61
2023/06/15 05:50:21;;;;;;;1.60;1.50;;;23.90;68.90;;;;;;5033295;28;20459;-62
2023/06/15 05:52:48;;;;;;;2.73;2.53;;;23.90;68.80;;;;;;5035786;28;20488;-61
2023/06/15 05:55:14;;;;;;;1.63;1.53;;;23.90;68.90;;;;;;5044066;28;20457;-61
2023/06/15 05:57:41;;;;;;;1.73;1.53;;;23.90;68.80;;;;;;5036529;28;20496;-63
2023/06/15 06:00:09;;;;;;;2.00;1.33;;;23.90;68.90;;;;;;5028016;28;20481;-63
2023/06/15 06:02:37;;;;;;;1.80;1.70;;;23.90;68.90;;;;;;5027037;28;20462;-63
2023/06/15 06:05:05;;;;;;;1.73;1.63;;;23.90;68.90;;;;;;5030113;28;20545;-63
2023/06/15 06:07:31;;;;;;;1.67;1.50;;;23.90;69.00;;;;;;5033956;28;20465;-63
2023/06/15 06:09:58;;;;;;;2.90;1.50;;;23.90;68.90;;;;;;5032672;28;20484;-63
2023/06/15 06:12:25;;;;;;;2.27;1.60;;;23.90;69.00;;;;;;5030887;28;20457;-63
2023/06/15 06:14:51;;;;;;;1.50;1.40;;;23.90;69.10;;;;;;5035600;28;20536;-63
2023/06/15 06:17:18;;;;;;;1.90;1.40;;;23.90;69.10;;;;;;5038582;28;20469;-63
2023/06/15 06:19:48;;;;;;;1.90;1.80;;;23.90;69.20;;;;;;5028463;28;20462;-63
2023/06/15 06:22:14;;;;;;;1.50;1.40;;;23.90;69.20;;;;;;5025079;28;20541;-63
2023/06/15 06:24:41;;;;;;;3.00;1.80;;;23.90;69.30;;;;;;5030911;28;20481;-61
2023/06/15 06:27:08;;;;;;;5.17;3.50;;;23.90;69.50;;;;;;5032142;28;20465;-62
2023/06/15 06:29:34;;;;;;;13.00;6.50;;;23.90;69.40;;;;;;5035501;28;20471;-62
2023/06/15 06:32:01;;;;;;;10.43;7.10;;;23.90;69.10;;;;;;5039398;28;20996;-61
2023/06/15 06:34:28;;;;;;;13.70;8.20;;;23.90;69.80;;;;;;5041321;28;20469;-61
2023/06/15 06:36:56;;;;;;;10.30;6.43;;;23.90;68.80;;;;;;5034961;28;20458;-60
2023/06/15 06:39:23;;;;;;;12.37;7.33;;;23.90;68.70;;;;;;5044509;28;20474;-62
2023/06/15 06:41:49;;;;;;;9.90;7.33;;;23.90;68.70;;;;;;5041591;28;20486;-61
2023/06/15 06:44:16;;;;;;;10.97;6.80;;;23.80;68.40;;;;;;5040637;28;20458;-61
2023/06/15 06:46:43;;;;;;;12.13;6.10;;;23.90;68.00;;;;;;5042576;28;20962;-62
2023/06/15 06:49:10;;;;;;;14.63;5.73;;;23.90;67.50;;;;;;5037930;28;20457;-61
2023/06/15 06:51:37;;;;;;;8.97;6.13;;;23.80;67.30;;;;;;5040294;28;20465;-61
2023/06/15 06:54:05;;;;;;;9.53;5.57;;;23.80;66.80;;;;;;5039844;28;20468;-61
2023/06/15 06:56:32;;;;;;;7.87;4.80;;;23.80;66.50;;;;;;5050412;28;20466;-60
2023/06/15 06:58:59;;;;;;;7.00;5.23;;;23.80;66.50;;;;;;5046744;28;20839;-61
2023/06/15 07:01:26;;;;;;;10.40;4.57;;;23.80;66.40;;;;;;5045825;28;20473;-61
2023/06/15 07:03:52;;;;;;;6.40;5.30;;;23.80;66.50;;;;;;5048000;28;20976;-61
2023/06/15 07:06:19;;;;;;;5.10;4.43;;;23.80;66.70;;;;;;5042554;28;20470;-61
2023/06/15 07:08:47;;;;;;;10.10;5.57;;;23.80;66.20;;;;;;5041257;28;20459;-60
2023/06/15 07:11:15;;;;;;;9.93;4.93;;;23.80;66.30;;;;;;5041585;28;20465;-61
2023/06/15 07:13:41;;;;;;;6.90;5.13;;;23.80;66.50;;;;;;5040774;28;20463;-60
2023/06/15 07:16:08;;;;;;;5.93;4.90;;;23.80;66.80;;;;;;5042802;28;20461;-62
2023/06/15 07:18:35;;;;;;;8.13;5.57;;;23.80;66.70;;;;;;5048882;28;20466;-61
2023/06/15 07:21:02;;;;;;;7.00;5.43;;;23.80;66.80;;;;;;5048290;28;20482;-61
2023/06/15 07:23:29;;;;;;;7.87;5.17;;;23.80;67.00;;;;;;5041599;28;20482;-61
2023/06/15 07:25:56;;;;;;;5.90;4.80;;;23.80;67.10;;;;;;5049287;28;20461;-61
2023/06/15 07:28:25;;;;;;;7.17;5.20;;;23.80;67.20;;;;;;5042598;28;20454;-62
2023/06/15 07:30:52;;;;;;;5.83;5.23;;;23.80;67.30;;;;;;5053625;28;20457;-62
2023/06/15 07:33:19;;;;;;;8.20;5.30;;;23.80;67.60;;;;;;5052641;28;20458;-61
2023/06/15 07:35:46;;;;;;;4.80;4.27;;;23.80;67.80;;;;;;5051913;28;20519;-61
2023/06/15 07:38:14;;;;;;;6.00;5.40;;;23.80;68.00;;;;;;5040266;28;20455;-62
2023/06/15 07:40:41;;;;;;;9.40;5.60;;;23.80;68.20;;;;;;5042474;28;20544;-61
2023/06/15 07:43:08;;;;;;;6.87;4.70;;;23.80;68.30;;;;;;5046225;28;20865;-62
2023/06/15 07:45:36;;;;;;;8.37;5.53;;;23.80;68.30;;;;;;5037956;28;20462;-62
2023/06/15 07:48:03;;;;;;;6.47;4.37;;;23.80;68.40;;;;;;5043913;28;20456;-61
2023/06/15 07:50:30;;;;;;;10.30;5.40;;;23.80;68.60;;;;;;5041102;28;21552;-61
2023/06/15 07:52:57;;;;;;;9.90;6.23;;;23.80;68.50;;;;;;5041248;28;20461;-61
2023/06/15 07:55:23;;;;;;;7.10;5.13;;;23.70;68.10;;;;;;5045141;28;20508;-62
2023/06/15 07:57:50;;;;;;;5.37;4.87;;;23.80;68.10;;;;;;5036125;28;20468;-61
2023/06/15 08:00:18;;;;;;;6.20;4.37;;;23.80;68.00;;;;;;5038166;28;20965;-61
2023/06/15 08:02:46;;;;;;;6.80;5.17;;;23.80;68.00;;;;;;5036453;28;21000;-61
2023/06/15 08:05:13;;;;;;;5.50;4.00;;;23.70;67.90;;;;;;5045238;28;20450;-61
2023/06/15 08:07:39;;;;;;;8.03;4.70;;;23.70;68.00;;;;;;5049605;28;20471;-61
2023/06/15 08:10:07;;;;;;;6.17;4.80;;;23.70;68.20;;;;;;5045516;28;20462;-60
2023/06/15 08:12:34;;;;;;;5.70;4.60;;;23.70;68.30;;;;;;5042970;28;20449;-61
2023/06/15 08:15:01;;;;;;;5.47;4.37;;;23.80;68.50;;;;;;5037891;28;20859;-61
2023/06/15 08:17:27;;;;;;;5.80;4.50;;;23.80;68.50;;;;;;5047510;28;20454;-61
2023/06/15 08:19:55;;;;;;;4.40;3.90;;;23.70;68.60;;;;;;5046117;28;20458;-62
2023/06/15 08:22:22;;;;;;;9.93;4.87;;;23.80;68.80;;;;;;5049453;28;20547;-61
2023/06/15 08:24:49;;;;;;;4.60;4.20;;;23.80;68.90;;;;;;5046607;28;20481;-62
2023/06/15 08:27:15;;;;;;;5.53;4.83;;;23.80;69.00;;;;;;5037590;28;20469;-61
2023/06/15 08:29:44;;;;;;;6.73;4.63;;;23.80;69.20;;;;;;5034264;28;20466;-62
2023/06/15 08:32:13;;;;;;;4.60;4.20;;;23.80;69.30;;;;;;5048748;28;20515;-62
2023/06/15 08:34:40;;;;;;;6.50;4.37;;;23.80;69.40;;;;;;5039256;28;20459;-61
2023/06/15 08:37:09;;;;;;;4.20;3.50;;;23.80;69.40;;;;;;5046009;28;20458;-62
2023/06/15 08:39:36;;;;;;;3.97;3.57;;;23.80;69.50;;;;;;5044508;28;20458;-63
2023/06/15 08:42:04;;;;;;;6.20;4.07;;;23.80;69.70;;;;;;5050734;28;20854;-62
2023/06/15 08:44:31;;;;;;;4.20;3.83;;;23.80;69.70;;;;;;5042931;28;20461;-62
2023/06/15 08:46:58;;;;;;;6.53;4.00;;;23.80;69.70;;;;;;5043300;28;20458;-61
2023/06/15 08:49:26;;;;;;;4.33;3.77;;;23.80;69.80;;;;;;5044009;28;20663;-62
2023/06/15 08:51:55;;;;;;;8.87;5.97;;;23.80;70.00;;;;;;5046833;28;20516;-62
2023/06/15 08:54:25;;;;;;;5.50;3.93;;;23.80;70.00;;;;;;5044584;28;21016;-62
2023/06/15 08:56:51;;;;;;;5.67;4.10;;;23.80;70.10;;;;;;5046236;28;20544;-61
2023/06/15 08:59:18;;;;;;;4.93;3.80;;;23.80;70.20;;;;;;5038660;28;20477;-61
2023/06/15 09:01:46;;;;;;;8.53;5.80;;;23.80;70.20;;;;;;5038785;28;20485;-62
2023/06/15 09:04:13;;;;;;;5.80;3.83;;;23.80;70.20;;;;;;5039054;28;20561;-62
2023/06/15 09:06:40;;;;;;;4.20;3.80;;;23.80;70.20;;;;;;5047251;28;20458;-61
2023/06/15 09:09:07;;;;;;;4.77;4.37;;;23.90;70.40;;;;;;5046331;28;20466;-61
2023/06/15 09:11:41;;;;;;;5.80;4.10;;;23.90;70.40;;;;;;5045323;28;20461;-61
2023/06/15 09:14:11;;;;;;;3.70;3.40;;;23.80;70.50;;;;;;5041393;28;20511;-62
2023/06/15 09:16:38;;;;;;;4.10;3.30;;;23.80;70.40;;;;;;5043710;28;20841;-63
2023/06/15 09:19:11;;;;;;;6.50;4.03;;;23.90;70.70;;;;;;5042446;28;20957;-64
2023/06/15 09:21:41;;;;;;;5.03;4.10;;;23.80;70.60;;;;;;5046852;28;20478;-62
2023/06/15 09:24:09;;;;;;;11.17;4.00;;;23.90;70.70;;;;;;5044088;28;20655;-62
2023/06/15 09:26:40;;;;;;;4.40;4.00;;;23.90;70.80;;;;;;5045919;28;20467;-63
2023/06/15 09:29:11;;;;;;;4.97;4.03;;;23.90;70.70;;;;;;5045396;28;20489;-63
2023/06/15 09:31:39;;;;;;;9.60;3.97;;;23.90;70.80;;;;;;5046950;28;20454;-62
2023/06/15 09:34:08;;;;;;;3.70;3.40;;;23.90;70.80;;;;;;5041402;28;20458;-63
2023/06/15 09:36:38;;;;;;;4.10;3.63;;;23.90;70.80;;;;;;5052647;28;20446;-62
2023/06/15 09:39:05;;;;;;;6.57;4.43;;;23.90;70.80;;;;;;5045105;28;20473;-62
2023/06/15 09:41:32;;;;;;;3.90;3.07;;;23.90;70.90;;;;;;5049028;28;20478;-63
2023/06/15 09:44:02;;;;;;;4.53;3.63;;;23.90;70.90;;;;;;5038497;28;20548;-62
2023/06/15 09:46:29;;;;;;;3.70;3.40;;;23.90;70.80;;;;;;5047818;28;20949;-61
2023/06/15 09:48:56;;;;;;;3.37;3.07;;;23.90;70.80;;;;;;5035072;28;20462;-66
2023/06/15 09:51:28;;;;;;;8.70;3.73;;;23.90;70.80;;;;;;5043171;28;20466;-60
2023/06/15 09:53:57;;;;;;;4.60;4.03;;;23.90;70.80;;;;;;5041764;28;20537;-59
2023/06/15 09:56:25;;;;;;;6.40;3.13;;;23.90;70.70;;;;;;5037983;28;20454;-67
2023/06/15 09:58:52;;;;;;;8.50;3.23;;;23.90;70.80;;;;;;5039448;28;20454;-64
2023/06/15 10:01:24;;;;;;;4.13;3.27;;;23.90;70.70;;;;;;5044747;28;20478;-69
2023/06/15 10:03:55;;;;;;;4.50;4.13;;;23.90;70.70;;;;;;5024648;28;20549;-71
2023/06/15 10:06:23;;;;;;;4.13;3.83;;;23.90;70.80;;;;;;5048010;28;20890;-64
2023/06/15 10:09:00;;;;;;;12.50;6.10;;;23.90;70.30;;;;;;5045285;28;20823;-69
2023/06/15 10:11:29;;;;;;;3.27;3.07;;;23.90;70.60;;;;;;5048957;28;20491;-73
2023/06/15 10:14:03;;;;;;;4.10;3.20;;;23.90;70.30;;;;;;5040873;28;20967;-65
2023/06/15 10:16:31;;;;;;;5.30;3.53;;;23.90;70.10;;;;;;5042134;28;20488;-65
2023/06/15 10:19:03;;;;;;;7.00;3.37;;;23.90;68.60;;;;;;5043299;28;20964;-64
2023/06/15 10:21:31;;;;;;;6.20;4.00;;;23.90;68.90;;;;;;5048629;28;20486;-64
2023/06/15 10:24:05;;;;;;;4.93;3.63;;;23.90;68.10;;;;;;5044651;28;21008;-67
2023/06/15 10:26:32;;;;;;;11.53;4.30;;;24.00;68.60;;;;;;5037429;28;20458;-66
2023/06/15 10:29:06;;;;;;;5.87;3.40;;;24.00;68.40;;;;;;5041491;28;20876;-63
2023/06/15 10:31:43;;;;;;;5.63;3.13;;;24.00;67.90;;;;;;5043471;28;20538;-63
2023/06/15 10:34:16;;;;;;;4.03;3.33;;;24.00;67.50;;;;;;5046017;28;20550;-62
2023/06/15 10:36:50;;;;;;;3.40;2.73;;;24.10;68.20;;;;;;5046919;28;20446;-61
2023/06/15 10:39:23;;;;;;;3.20;2.77;;;24.10;68.00;;;;;;5035115;28;20453;-61
2023/06/15 10:41:52;;;;;;;4.63;3.60;;;24.20;68.10;;;;;;5037461;28;20474;-61
2023/06/15 10:44:19;;;;;;;4.63;3.47;;;24.20;66.90;;;;;;5041159;28;20537;-59
2023/06/15 10:46:47;;;;;;;3.90;3.53;;;24.20;66.70;;;;;;5038467;28;20484;-67
2023/06/15 10:49:14;;;;;;;5.17;3.70;;;24.20;67.10;;;;;;5039716;28;20489;-62
2023/06/15 10:51:42;;;;;;;4.77;3.57;;;24.30;67.10;;;;;;5043409;28;20836;-71
2023/06/15 10:54:23;;;;;;;5.07;3.23;;;24.30;68.10;;;;;;5042972;28;20462;-65
2023/06/15 10:56:51;;;;;;;2.97;2.77;;;24.30;67.10;;;;;;5045118;28;20552;-64
2023/06/15 10:59:42;;;;;;;3.97;3.40;;;24.40;67.20;;;;;;5041866;28;20550;-65
2023/06/15 11:02:49;;;;;;;7.63;3.47;;;24.50;67.40;;;;;;5040489;28;20276;-73
2023/06/15 11:05:19;;;;;;;4.63;3.27;;;24.50;66.70;;;;;;5037391;28;20496;-61
2023/06/15 11:07:49;;;;;;;5.33;3.17;;;24.50;66.70;;;;;;5032497;28;20467;-59
2023/06/15 11:10:22;;;;;;;4.37;3.23;;;24.60;67.50;;;;;;5034408;28;20865;-60
2023/06/15 11:13:00;;;;;;;4.33;2.50;;;24.60;67.30;;;;;;5043248;28;20458;-60
2023/06/15 11:15:32;;;;;;;3.20;2.80;;;24.60;67.00;;;;;;5036347;28;20553;-59
2023/06/15 11:18:02;;;;;;;4.73;3.33;;;24.70;67.10;;;;;;5046762;28;20556;-59
2023/06/15 11:20:43;;;;;;;3.87;2.80;;;24.70;66.80;;;;;;5039667;28;20480;-58
2023/06/15 11:23:11;;;;;;;3.10;2.90;;;24.70;65.70;;;;;;5044817;28;20473;-60
2023/06/15 11:25:39;;;;;;;5.27;2.67;;;24.70;65.80;;;;;;5043551;28;20462;-60
2023/06/15 11:28:07;;;;;;;3.10;2.80;;;24.70;65.90;;;;;;5047185;28;20532;-60
2023/06/15 11:30:34;;;;;;;3.70;2.20;;;24.80;66.00;;;;;;5043052;28;20460;-60
2023/06/15 11:33:02;;;;;;;6.50;2.80;;;24.80;65.90;;;;;;5042738;28;20977;-60
2023/06/15 11:35:30;;;;;;;3.57;3.07;;;24.80;65.80;;;;;;5048769;28;20479;-60
2023/06/15 11:37:58;;;;;;;7.20;3.20;;;24.80;65.80;;;;;;5044855;28;20982;-59
2023/06/15 11:40:25;;;;;;;2.90;2.47;;;24.80;65.70;;;;;;5045672;28;20463;-60
2023/06/15 11:42:53;;;;;;;4.30;2.53;;;24.80;65.90;;;;;;5046112;28;20528;-60
2023/06/15 11:45:23;;;;;;;4.60;2.70;;;24.80;65.50;;;;;;5046468;28;20465;-59
2023/06/15 11:47:50;;;;;;;3.67;2.63;;;24.80;65.30;;;;;;5041723;28;20961;-60
2023/06/15 11:50:19;;;;;;;3.73;2.60;;;24.80;65.60;;;;;;5039518;28;20614;-60
2023/06/15 11:52:46;;;;;;;2.80;2.40;;;24.80;65.20;;;;;;5049008;28;20464;-60
2023/06/15 11:55:16;;;;;;;5.50;2.97;;;24.90;65.30;;;;;;5043322;28;20837;-59
2023/06/15 11:57:43;;;;;;;3.17;2.90;;;24.80;65.20;;;;;;5043882;28;20494;-58
2023/06/15 12:00:12;;;;;;;2.93;2.53;;;24.80;65.20;;;;;;5044246;28;20453;-58
2023/06/15 12:02:40;;;;;;;5.97;2.20;;;24.90;65.30;;;;;;5046270;28;20485;-59
2023/06/15 12:05:10;;;;;;;4.47;3.03;;;24.90;65.10;;;;;;5029747;28;20541;-59
2023/06/15 12:07:38;;;;;;;4.10;3.47;;;24.90;65.30;;;;;;5040593;28;20834;-59
2023/06/15 12:10:07;;;;;;;5.03;3.00;;;24.80;65.10;;;;;;5045579;28;20520;-58
2023/06/15 12:12:35;;;;;;;4.57;2.63;;;24.80;64.80;;;;;;5046790;28;20489;-59
2023/06/15 12:15:02;;;;;;;4.17;2.30;;;24.80;64.70;;;;;;5036463;28;20470;-59
2023/06/15 12:17:31;;;;;;;3.63;2.50;;;24.80;64.60;;;;;;5047318;28;20466;-59
2023/06/15 12:20:03;;;;;;;3.53;2.57;;;24.80;63.60;;;;;;5040206;28;20454;-59
2023/06/15 12:22:35;;;;;;;2.80;2.40;;;24.80;64.10;;;;;;5047816;28;21004;-58
2023/06/15 12:25:04;;;;;;;3.40;2.33;;;24.80;63.60;;;;;;5047492;28;20489;-59
2023/06/15 12:27:31;;;;;;;5.20;2.80;;;24.80;63.90;;;;;;5044995;28;20461;-59
2023/06/15 12:30:09;;;;;;;2.43;2.23;;;24.80;63.70;;;;;;5040322;28;20465;-59
2023/06/15 12:32:36;;;;;;;4.27;2.67;;;24.80;63.70;;;;;;5044682;28;20462;-59
2023/06/15 12:35:03;;;;;;;5.43;2.63;;;24.80;63.90;;;;;;5038919;28;20457;-59
2023/06/15 12:37:30;;;;;;;3.47;2.30;;;24.80;64.10;;;;;;5048983;28;20478;-59
2023/06/15 12:39:56;;;;;;;4.00;3.10;;;24.80;63.70;;;;;;5051019;28;20452;-59
2023/06/15 12:42:25;;;;;;;2.30;2.10;;;24.80;63.90;;;;;;5031405;28;20466;-58
2023/06/15 12:44:51;;;;;;;2.73;2.53;;;24.80;63.70;;;;;;5040992;28;20826;-58
2023/06/15 12:47:18;;;;;;;4.53;3.57;;;24.70;63.90;;;;;;5040128;28;20458;-59
2023/06/15 12:49:45;;;;;;;3.43;2.83;;;24.70;63.80;;;;;;5039677;28;20463;-58